RJSU(METAR)
02/18 15:00
METAR RJSU 180600Z 29014G24KT 9999 FEW030 SCT070 11/M08 Q1022 RMK
1CU030 3AC070 A3020=
戻る
トップページへ戻る
IMOC Co,.Ltd.